createdAt,value
2018-09-06T00:00:04.635Z,68.38
2018-09-06T00:02:34.064Z,68.17
2018-09-06T00:05:02.996Z,68.48
2018-09-06T00:07:31.763Z,68.29
2018-09-06T00:10:00.553Z,68.82
2018-09-06T00:12:29.568Z,68.26
2018-09-06T00:14:58.379Z,68.55
2018-09-06T00:17:27.812Z,68.80
2018-09-06T00:19:56.744Z,69.41
2018-09-06T00:22:25.572Z,68.74
2018-09-06T00:24:54.710Z,68.68
2018-09-06T00:27:23.548Z,69.54
2018-09-06T00:29:52.231Z,70.06
2018-09-06T00:32:21.265Z,69.78
2018-09-06T00:34:50.011Z,69.74
2018-09-06T00:37:18.707Z,69.69
2018-09-06T00:39:47.738Z,69.73
2018-09-06T00:42:16.696Z,70.02
2018-09-06T00:44:45.990Z,69.65
2018-09-06T00:47:15.109Z,69.94
2018-09-06T00:49:44.028Z,69.13
2018-09-06T00:52:13.369Z,69.40
2018-09-06T00:54:42.500Z,69.14
2018-09-06T00:57:11.348Z,69.10
2018-09-06T00:59:40.190Z,69.30
2018-09-06T01:02:09.343Z,69.86
2018-09-06T01:04:38.023Z,69.57
2018-09-06T01:07:06.803Z,68.85
2018-09-06T01:09:35.848Z,69.56
2018-09-06T01:12:04.815Z,69.32
2018-09-06T01:14:33.879Z,69.53
2018-09-06T01:17:02.985Z,69.39
2018-09-06T01:19:31.961Z,69.27
2018-09-06T01:22:00.825Z,68.57
2018-09-06T01:24:30.019Z,69.10
2018-09-06T01:26:59.321Z,69.45
2018-09-06T01:29:28.101Z,68.94
2018-09-06T01:31:56.926Z,68.80
2018-09-06T01:34:25.784Z,69.97
2018-09-06T01:36:54.606Z,69.34
2018-09-06T01:39:23.617Z,70.08
2018-09-06T01:41:52.552Z,69.56
2018-09-06T01:44:21.713Z,70.03
2018-09-06T01:46:50.754Z,70.14
2018-09-06T01:49:19.835Z,70.63
2018-09-06T01:51:48.642Z,70.60
2018-09-06T01:54:18.033Z,70.72
2018-09-06T01:56:47.123Z,71.00
2018-09-06T01:59:16.227Z,71.48
2018-09-06T02:01:45.107Z,71.52
2018-09-06T02:04:13.918Z,72.19
2018-09-06T02:06:42.716Z,71.90
2018-09-06T02:09:11.559Z,71.81
2018-09-06T02:11:41.338Z,71.71
2018-09-06T02:14:10.740Z,71.80
2018-09-06T02:16:39.892Z,71.43
2018-09-06T02:19:09.050Z,71.63
2018-09-06T02:21:38.316Z,71.00
2018-09-06T02:24:07.136Z,71.30
2018-09-06T02:26:36.127Z,70.79
2018-09-06T02:29:05.392Z,71.18
2018-09-06T02:31:34.355Z,71.21
2018-09-06T02:34:03.169Z,70.63
2018-09-06T02:36:32.274Z,71.02
2018-09-06T02:39:01.051Z,70.61
2018-09-06T02:41:30.347Z,69.66
2018-09-06T02:43:59.278Z,70.22
2018-09-06T02:46:28.396Z,69.31
2018-09-06T02:48:57.635Z,69.71
2018-09-06T02:51:26.816Z,69.93
2018-09-06T02:53:55.637Z,69.43
2018-09-06T02:56:24.418Z,69.61
2018-09-06T02:58:53.412Z,68.99
2018-09-06T03:01:22.309Z,68.86
2018-09-06T03:03:51.078Z,69.44
2018-09-06T03:06:20.106Z,69.02
2018-09-06T03:08:48.899Z,68.12
2018-09-06T03:11:20.230Z,67.84
2018-09-06T03:13:49.143Z,68.00
2018-09-06T03:16:18.366Z,68.17
2018-09-06T03:18:47.844Z,67.88
2018-09-06T03:21:16.825Z,68.72
2018-09-06T03:23:45.811Z,68.69
2018-09-06T03:26:17.281Z,68.33
2018-09-06T03:28:47.714Z,69.29
2018-09-06T03:31:17.150Z,69.16
2018-09-06T03:33:46.237Z,68.26
2018-09-06T03:36:15.318Z,68.01
2018-09-06T03:38:44.652Z,68.66
2018-09-06T03:41:13.482Z,68.47
2018-09-06T03:43:42.266Z,68.40
2018-09-06T03:46:11.818Z,68.42
2018-09-06T03:48:41.054Z,67.76
2018-09-06T03:51:09.964Z,68.11
2018-09-06T03:53:39.294Z,68.73
2018-09-06T03:56:08.570Z,68.88
2018-09-06T03:58:37.330Z,68.73
2018-09-06T04:01:06.490Z,68.23
2018-09-06T04:03:35.194Z,67.97
2018-09-06T04:06:04.012Z,67.18
2018-09-06T04:08:32.774Z,66.83
2018-09-06T04:11:01.699Z,67.09
2018-09-06T04:13:30.600Z,67.72
2018-09-06T04:15:59.715Z,67.99
2018-09-06T04:18:28.710Z,68.51
2018-09-06T04:20:57.618Z,68.91
2018-09-06T04:23:27.004Z,68.90
2018-09-06T04:25:56.068Z,69.13
2018-09-06T04:28:25.082Z,69.36
2018-09-06T04:30:54.383Z,69.36
2018-09-06T04:33:23.095Z,69.69
2018-09-06T04:35:51.747Z,69.30
2018-09-06T04:38:21.242Z,69.16
2018-09-06T04:40:50.256Z,69.01
2018-09-06T04:43:19.260Z,69.08
2018-09-06T04:45:48.483Z,68.50
2018-09-06T04:48:17.727Z,68.60
2018-09-06T04:50:46.927Z,68.62
2018-09-06T04:53:16.071Z,68.13
2018-09-06T04:55:45.040Z,68.35
2018-09-06T04:58:13.932Z,68.43
2018-09-06T05:00:43.039Z,68.41
2018-09-06T05:03:11.702Z,67.93
2018-09-06T05:05:40.451Z,67.74
2018-09-06T05:08:10.031Z,67.61
2018-09-06T05:10:39.011Z,67.30
2018-09-06T05:13:08.116Z,67.76
2018-09-06T05:15:37.966Z,67.41
2018-09-06T05:18:07.186Z,67.60
2018-09-06T05:20:36.628Z,67.14
2018-09-06T05:23:06.021Z,66.24
2018-09-06T05:25:35.215Z,67.32
2018-09-06T05:28:04.142Z,66.50
2018-09-06T05:30:33.147Z,66.11
2018-09-06T05:33:01.919Z,65.89
2018-09-06T05:35:30.553Z,65.83
2018-09-06T05:37:59.991Z,65.56
2018-09-06T05:40:28.817Z,65.54
2018-09-06T05:42:57.536Z,66.55
2018-09-06T05:45:26.279Z,66.48
2018-09-06T05:47:57.906Z,67.28
2018-09-06T05:50:28.351Z,65.80
2018-09-06T05:52:57.765Z,65.09
2018-09-06T05:55:26.934Z,64.90
2018-09-06T05:57:55.839Z,64.27
2018-09-06T06:00:29.693Z,64.23
2018-09-06T06:03:00.596Z,63.91
2018-09-06T06:05:29.473Z,63.94
2018-09-06T06:08:09.576Z,63.35
2018-09-06T06:10:38.852Z,62.75
2018-09-06T06:13:07.840Z,63.15
2018-09-06T06:15:36.947Z,62.14
2018-09-06T06:18:06.242Z,62.05
2018-09-06T06:20:35.354Z,62.27
2018-09-06T06:23:04.303Z,62.04
2018-09-06T06:25:32.966Z,62.64
2018-09-06T06:28:01.762Z,62.52
2018-09-06T06:30:30.567Z,63.56
2018-09-06T06:32:59.651Z,62.54
2018-09-06T06:35:28.398Z,61.34
2018-09-06T06:37:57.241Z,62.95
2018-09-06T06:40:26.356Z,62.52
2018-09-06T06:42:55.436Z,64.03
2018-09-06T06:45:27.625Z,64.43
2018-09-06T06:47:56.907Z,64.44
2018-09-06T06:50:25.988Z,64.17
2018-09-06T06:52:55.126Z,62.97
2018-09-06T06:55:24.271Z,63.26
2018-09-06T06:57:53.130Z,63.75
2018-09-06T07:00:22.723Z,64.29
2018-09-06T07:02:52.203Z,63.58
2018-09-06T07:05:20.871Z,64.32
2018-09-06T07:07:50.517Z,63.63
2018-09-06T07:10:19.379Z,63.75
2018-09-06T07:12:48.410Z,63.87
2018-09-06T07:15:17.699Z,63.97
2018-09-06T07:17:46.459Z,63.79
2018-09-06T07:20:15.405Z,62.86
2018-09-06T07:22:44.307Z,62.81
2018-09-06T07:25:13.185Z,63.47
2018-09-06T07:27:42.102Z,62.62
2018-09-06T07:30:10.895Z,62.43
2018-09-06T07:32:39.642Z,61.97
2018-09-06T07:35:08.799Z,61.96
2018-09-06T07:37:38.138Z,62.60
2018-09-06T07:40:07.076Z,62.14
2018-09-06T07:42:35.897Z,60.64
2018-09-06T07:45:05.627Z,60.07
2018-09-06T07:47:34.819Z,59.95
2018-09-06T07:50:03.727Z,59.75
2018-09-06T07:52:33.231Z,58.78
2018-09-06T07:55:02.305Z,58.84
2018-09-06T07:57:31.503Z,57.03
2018-09-06T08:00:00.336Z,57.04
2018-09-06T08:02:29.148Z,57.00
2018-09-06T08:04:57.927Z,56.08
2018-09-06T08:07:27.393Z,56.17
2018-09-06T08:09:56.126Z,56.13
2018-09-06T08:12:25.071Z,56.01
2018-09-06T08:14:54.383Z,54.36
2018-09-06T08:17:23.358Z,53.66
2018-09-06T08:19:52.039Z,53.67
2018-09-06T08:22:21.309Z,53.69
2018-09-06T08:24:50.215Z,53.70
2018-09-06T08:27:19.259Z,52.82
2018-09-06T08:29:48.343Z,52.23
2018-09-06T08:32:17.129Z,52.32
2018-09-06T08:34:46.260Z,51.44
2018-09-06T08:37:15.572Z,52.56
2018-09-06T08:39:44.436Z,52.48
2018-09-06T08:42:13.494Z,50.93
2018-09-06T08:44:42.806Z,51.70
2018-09-06T08:47:11.697Z,51.21
2018-09-06T08:49:40.523Z,51.60
2018-09-06T08:52:09.677Z,51.27
2018-09-06T08:54:38.508Z,51.43
2018-09-06T08:57:07.449Z,49.89
2018-09-06T08:59:36.575Z,49.25
2018-09-06T09:02:09.500Z,49.93
2018-09-06T09:04:38.971Z,50.49
2018-09-06T09:07:08.045Z,49.54
2018-09-06T09:09:36.927Z,47.46
2018-09-06T09:12:06.264Z,48.46
2018-09-06T09:14:35.417Z,46.60
2018-09-06T09:17:04.519Z,46.78
2018-09-06T09:19:33.835Z,47.33
2018-09-06T09:22:02.719Z,46.10
2018-09-06T09:24:31.539Z,47.50
2018-09-06T09:27:00.699Z,47.06
2018-09-06T09:29:29.388Z,47.42
2018-09-06T09:31:58.506Z,48.06
2018-09-06T09:34:27.722Z,47.09
2018-09-06T09:36:56.855Z,46.57
2018-09-06T09:39:25.984Z,45.88
2018-09-06T09:41:55.263Z,45.96
2018-09-06T09:44:24.460Z,46.43
2018-09-06T09:49:22.026Z,47.10
2018-09-06T09:51:50.914Z,46.45
2018-09-06T09:54:19.854Z,45.46
2018-09-06T09:56:49.102Z,45.49
2018-09-06T09:59:17.716Z,43.59
2018-09-06T10:01:51.715Z,44.20
2018-09-06T10:04:25.853Z,43.24
2018-09-06T10:07:00.361Z,41.83
2018-09-06T10:09:29.380Z,40.40
2018-09-06T10:11:58.659Z,41.26
2018-09-06T10:14:28.064Z,40.49
2018-09-06T10:16:57.591Z,41.10
2018-09-06T10:19:26.856Z,41.27
2018-09-06T10:21:56.210Z,41.73
2018-09-06T10:24:25.089Z,41.78
2018-09-06T10:26:53.843Z,40.08
2018-09-06T10:29:23.255Z,40.69
2018-09-06T10:31:52.423Z,38.47
2018-09-06T10:34:21.391Z,38.39
2018-09-06T10:36:50.584Z,36.90
2018-09-06T10:39:19.817Z,39.01
2018-09-06T10:41:48.763Z,37.39
2018-09-06T10:44:18.290Z,37.87
2018-09-06T10:46:47.264Z,39.54
2018-09-06T10:49:16.263Z,39.45
2018-09-06T10:51:45.458Z,38.35
2018-09-06T10:54:14.648Z,36.96
2018-09-06T10:56:43.480Z,39.16
2018-09-06T10:59:12.362Z,39.46
2018-09-06T11:01:41.306Z,38.32
2018-09-06T11:04:10.329Z,37.99
2018-09-06T11:06:39.673Z,38.25
2018-09-06T11:09:08.610Z,37.30
2018-09-06T11:11:37.231Z,37.60
2018-09-06T11:14:07.161Z,36.51
2018-09-06T11:16:36.138Z,36.52
2018-09-06T11:19:05.763Z,36.38
2018-09-06T11:21:35.239Z,35.23
2018-09-06T11:24:03.791Z,35.05
2018-09-06T11:26:32.571Z,31.91
2018-09-06T11:29:01.634Z,32.13
2018-09-06T11:31:30.428Z,32.64
2018-09-06T11:33:59.104Z,30.94
2018-09-06T11:36:28.630Z,31.48
2018-09-06T11:38:57.491Z,32.74
2018-09-06T11:41:26.250Z,30.25
2018-09-06T11:43:55.569Z,31.12
2018-09-06T11:46:24.388Z,32.46
2018-09-06T11:48:53.448Z,33.36
2018-09-06T11:51:22.879Z,32.43
2018-09-06T11:53:51.793Z,30.61
2018-09-06T11:56:20.457Z,31.07
2018-09-06T11:58:49.478Z,31.03
2018-09-06T12:01:18.582Z,31.96
2018-09-06T12:03:47.749Z,31.60
2018-09-06T12:06:17.311Z,32.35
2018-09-06T12:08:46.426Z,33.31
2018-09-06T12:11:15.506Z,35.44
2018-09-06T12:13:44.926Z,34.73
2018-09-06T12:16:13.716Z,34.74
2018-09-06T12:18:42.719Z,35.78
2018-09-06T12:21:12.126Z,36.71
2018-09-06T12:23:40.981Z,36.74
2018-09-06T12:26:09.770Z,37.77
2018-09-06T12:28:38.839Z,37.61
2018-09-06T12:31:08.066Z,37.26
2018-09-06T12:33:38.018Z,37.10
2018-09-06T12:36:07.411Z,36.81
2018-09-06T12:38:36.629Z,36.82
2018-09-06T12:41:05.698Z,36.78
2018-09-06T12:43:35.050Z,37.27
2018-09-06T12:46:04.207Z,36.50
2018-09-06T12:48:33.833Z,35.45
2018-09-06T12:51:02.914Z,36.96
2018-09-06T12:53:32.221Z,36.74
2018-09-06T12:56:00.915Z,37.21
2018-09-06T12:58:30.088Z,36.77
2018-09-06T13:00:59.096Z,38.63
2018-09-06T13:03:27.958Z,38.51
2018-09-06T13:05:57.309Z,38.38
2018-09-06T13:08:26.358Z,39.28
2018-09-06T13:10:55.253Z,39.20
2018-09-06T13:13:24.687Z,39.37
2018-09-06T13:15:53.371Z,38.17
2018-09-06T13:18:22.168Z,36.62
2018-09-06T13:20:51.650Z,36.19
2018-09-06T13:23:20.439Z,34.65
2018-09-06T13:25:49.299Z,34.96
2018-09-06T13:28:18.533Z,37.82
2018-09-06T13:30:47.386Z,39.90
2018-09-06T13:33:16.381Z,41.60
2018-09-06T13:35:45.684Z,42.33
2018-09-06T13:38:14.674Z,43.44
2018-09-06T13:40:43.814Z,43.06
2018-09-06T13:43:13.041Z,40.96
2018-09-06T13:45:42.219Z,39.09
2018-09-06T13:48:10.950Z,35.84
2018-09-06T13:50:40.142Z,34.44
2018-09-06T13:53:08.996Z,35.01
2018-09-06T13:55:37.797Z,32.66
2018-09-06T13:58:06.794Z,32.10
2018-09-06T14:00:35.568Z,31.85
2018-09-06T14:03:04.302Z,31.08
2018-09-06T14:05:33.734Z,30.36
2018-09-06T14:08:02.754Z,30.29
2018-09-06T14:10:31.578Z,30.51
2018-09-06T14:13:00.807Z,29.43
2018-09-06T14:15:30.059Z,28.30
2018-09-06T14:17:58.782Z,30.25
2018-09-06T14:20:28.367Z,29.30
2018-09-06T14:22:57.085Z,28.64
2018-09-06T14:25:25.762Z,28.44
2018-09-06T14:27:54.763Z,28.69
2018-09-06T14:30:23.828Z,29.52
2018-09-06T14:32:52.776Z,29.58
2018-09-06T14:35:21.675Z,30.17
2018-09-06T14:37:50.412Z,30.64
2018-09-06T14:40:19.348Z,30.10
2018-09-06T14:42:48.595Z,29.75
2018-09-06T14:45:17.722Z,29.77
2018-09-06T14:47:46.569Z,29.62
2018-09-06T14:50:15.667Z,28.48
2018-09-06T14:52:44.574Z,27.79
2018-09-06T14:55:13.237Z,27.43
2018-09-06T14:57:42.056Z,28.12
2018-09-06T15:00:10.893Z,27.51
2018-09-06T15:02:39.583Z,27.75
2018-09-06T15:05:08.630Z,27.71
2018-09-06T15:07:37.893Z,27.75
2018-09-06T15:10:07.304Z,27.85
2018-09-06T15:12:36.386Z,27.56
2018-09-06T15:15:05.471Z,27.80
2018-09-06T15:17:34.921Z,27.15
2018-09-06T15:20:04.006Z,26.17
2018-09-06T15:22:32.755Z,27.58
2018-09-06T15:25:01.446Z,26.60
2018-09-06T15:27:30.130Z,27.56
2018-09-06T15:29:59.230Z,28.75
2018-09-06T15:32:28.159Z,26.33
2018-09-06T15:34:56.934Z,26.50
2018-09-06T15:37:25.751Z,27.53
2018-09-06T15:39:54.466Z,27.83
2018-09-06T15:42:23.410Z,29.07
2018-09-06T15:44:52.023Z,29.65
2018-09-06T15:47:21.398Z,30.84
2018-09-06T15:49:50.093Z,29.39
2018-09-06T15:52:18.858Z,30.07
2018-09-06T15:54:47.929Z,30.68
2018-09-06T15:57:16.849Z,31.05
2018-09-06T15:59:45.870Z,31.43
2018-09-06T16:02:15.330Z,32.32
2018-09-06T16:04:44.144Z,33.82
2018-09-06T16:07:13.328Z,34.21
2018-09-06T16:09:42.590Z,33.10
2018-09-06T16:12:11.545Z,35.24
2018-09-06T16:14:40.538Z,35.63
2018-09-06T16:17:09.755Z,37.68
2018-09-06T16:19:38.836Z,37.61
2018-09-06T16:22:07.621Z,38.58
2018-09-06T16:24:36.752Z,39.65
2018-09-06T16:27:05.613Z,40.06
2018-09-06T16:29:34.601Z,41.32
2018-09-06T16:32:03.734Z,41.16
2018-09-06T16:34:32.467Z,42.38
2018-09-06T16:37:01.487Z,42.45
2018-09-06T16:39:30.412Z,43.05
2018-09-06T16:41:59.122Z,44.23
2018-09-06T16:44:28.163Z,44.41
2018-09-06T16:46:57.100Z,44.56
2018-09-06T16:49:26.268Z,45.77
2018-09-06T16:51:55.078Z,46.36
2018-09-06T16:54:24.111Z,46.32
2018-09-06T16:56:52.783Z,46.41
2018-09-06T16:59:21.635Z,47.65
2018-09-06T17:01:50.822Z,48.62
2018-09-06T17:04:19.891Z,50.03
2018-09-06T17:06:48.799Z,50.25
2018-09-06T17:09:17.921Z,51.37
2018-09-06T17:11:46.732Z,51.94
2018-09-06T17:14:15.676Z,53.40
2018-09-06T17:16:44.419Z,53.88
2018-09-06T17:19:13.516Z,53.72
2018-09-06T17:21:42.196Z,53.90
2018-09-06T17:24:10.896Z,53.47
2018-09-06T17:26:39.695Z,54.93
2018-09-06T17:29:08.627Z,54.96
2018-09-06T17:31:37.406Z,55.30
2018-09-06T17:34:06.547Z,55.24
2018-09-06T17:36:35.599Z,55.63
2018-09-06T17:39:06.511Z,55.76
2018-09-06T17:41:35.607Z,56.17
2018-09-06T17:44:04.466Z,56.97
2018-09-06T17:46:33.265Z,56.83
2018-09-06T17:49:02.455Z,57.91
2018-09-06T17:51:31.150Z,58.16
2018-09-06T17:53:59.942Z,57.68
2018-09-06T17:56:28.960Z,57.98
2018-09-06T17:58:58.170Z,57.86
2018-09-06T18:01:33.340Z,58.99
2018-09-06T18:04:02.472Z,59.62
2018-09-06T18:06:31.516Z,59.55
2018-09-06T18:09:00.738Z,59.22
2018-09-06T18:11:30.170Z,59.24
2018-09-06T18:13:59.517Z,59.76
2018-09-06T18:16:28.718Z,60.28
2018-09-06T18:18:57.766Z,59.61
2018-09-06T18:21:27.222Z,60.16
2018-09-06T18:23:57.043Z,60.93
2018-09-06T18:26:26.135Z,61.43
2018-09-06T18:28:55.124Z,62.00
2018-09-06T18:31:24.502Z,62.54
2018-09-06T18:33:53.218Z,62.35
2018-09-06T18:36:22.606Z,62.53
2018-09-06T18:38:52.584Z,62.21
2018-09-06T18:41:21.437Z,62.75
2018-09-06T18:43:50.657Z,62.55
2018-09-06T18:46:20.154Z,62.59
2018-09-06T18:48:49.088Z,62.20
2018-09-06T18:51:17.891Z,62.31
2018-09-06T18:53:46.887Z,62.56
2018-09-06T18:56:15.708Z,62.67
2018-09-06T18:58:44.647Z,62.35
2018-09-06T19:01:14.004Z,62.55
2018-09-06T19:03:42.821Z,62.74
2018-09-06T19:06:11.957Z,62.60
2018-09-06T19:08:41.384Z,62.56
2018-09-06T19:11:10.468Z,62.60
2018-09-06T19:13:39.281Z,62.71
2018-09-06T19:16:08.614Z,62.68
2018-09-06T19:18:37.745Z,62.52
2018-09-06T19:21:06.878Z,62.88
2018-09-06T19:23:35.937Z,62.58
2018-09-06T19:26:04.666Z,63.01
2018-09-06T19:28:33.767Z,63.04
2018-09-06T19:31:03.280Z,63.06
2018-09-06T19:33:32.427Z,63.17
2018-09-06T19:36:01.462Z,63.50
2018-09-06T19:38:30.989Z,63.60
2018-09-06T19:40:59.946Z,63.55
2018-09-06T19:43:28.942Z,63.51
2018-09-06T19:45:58.488Z,63.95
2018-09-06T19:48:27.339Z,63.89
2018-09-06T19:50:56.461Z,63.72
2018-09-06T19:53:25.418Z,63.69
2018-09-06T19:55:54.168Z,63.38
2018-09-06T19:58:22.924Z,63.79
2018-09-06T20:00:52.202Z,63.97
2018-09-06T20:03:21.242Z,64.32
2018-09-06T20:05:50.422Z,63.92
2018-09-06T20:08:19.861Z,64.58
2018-09-06T20:10:48.708Z,65.07
2018-09-06T20:13:17.796Z,65.37
2018-09-06T20:15:47.119Z,64.97
2018-09-06T20:18:15.980Z,64.82
2018-09-06T20:20:44.720Z,65.03
2018-09-06T20:23:13.533Z,65.37
2018-09-06T20:25:42.348Z,65.58
2018-09-06T20:28:11.378Z,65.88
2018-09-06T20:30:40.074Z,65.69
2018-09-06T20:33:09.179Z,66.20
2018-09-06T20:35:38.134Z,66.27
2018-09-06T20:38:07.650Z,66.26
2018-09-06T20:40:37.630Z,66.42
2018-09-06T20:43:06.865Z,66.41
2018-09-06T20:45:35.908Z,66.25
2018-09-06T20:48:05.024Z,66.56
2018-09-06T20:50:33.777Z,66.10
2018-09-06T20:53:02.784Z,66.73
2018-09-06T20:55:31.461Z,66.72
2018-09-06T20:58:00.301Z,66.58
2018-09-06T21:00:29.523Z,66.98
2018-09-06T21:02:58.401Z,66.87
2018-09-06T21:05:27.701Z,67.00
2018-09-06T21:07:57.006Z,66.97
2018-09-06T21:10:26.035Z,66.99
2018-09-06T21:12:54.995Z,67.47
2018-09-06T21:15:24.303Z,67.34
2018-09-06T21:17:55.604Z,67.06
2018-09-06T21:20:24.550Z,67.15
2018-09-06T21:22:53.238Z,67.78
2018-09-06T21:25:22.036Z,67.30
2018-09-06T21:27:51.214Z,67.59
2018-09-06T21:30:20.179Z,67.53
2018-09-06T21:32:49.085Z,67.79
2018-09-06T21:35:23.764Z,67.58
2018-09-06T21:37:52.934Z,67.86
2018-09-06T21:40:22.098Z,67.70
2018-09-06T21:42:51.223Z,67.39
2018-09-06T21:45:20.272Z,67.08
2018-09-06T21:47:49.221Z,67.02
2018-09-06T21:50:18.221Z,67.14
2018-09-06T21:52:46.923Z,67.17
2018-09-06T21:55:15.852Z,67.04
2018-09-06T21:57:45.192Z,67.08
2018-09-06T22:00:14.182Z,66.67
2018-09-06T22:02:48.396Z,67.02
2018-09-06T22:05:17.507Z,66.76
2018-09-06T22:07:46.758Z,66.41
2018-09-06T22:10:15.672Z,66.37
2018-09-06T22:12:44.603Z,66.49
2018-09-06T22:15:13.670Z,66.80
2018-09-06T22:17:42.848Z,67.23
2018-09-06T22:20:11.539Z,66.92
2018-09-06T22:22:40.303Z,66.87
2018-09-06T22:25:09.375Z,66.68
2018-09-06T22:27:38.323Z,66.39
2018-09-06T22:30:07.329Z,66.18
2018-09-06T22:32:36.899Z,66.15
2018-09-06T22:35:05.784Z,66.03
2018-09-06T22:37:34.679Z,65.70
2018-09-06T22:40:03.946Z,66.31
2018-09-06T22:42:32.942Z,66.25
2018-09-06T22:45:01.744Z,65.86
2018-09-06T22:47:30.709Z,66.02
2018-09-06T22:49:59.755Z,65.88
2018-09-06T22:52:28.631Z,65.43
2018-09-06T22:54:57.802Z,65.23
2018-09-06T22:57:26.664Z,65.68
2018-09-06T22:59:55.759Z,65.61
2018-09-06T23:02:29.217Z,66.28
2018-09-06T23:04:58.467Z,66.28
2018-09-06T23:07:27.765Z,66.92
2018-09-06T23:09:56.595Z,66.71
2018-09-06T23:12:25.490Z,67.31
2018-09-06T23:14:54.440Z,67.28
2018-09-06T23:17:23.513Z,67.42
2018-09-06T23:19:52.323Z,66.98
2018-09-06T23:22:21.294Z,67.23
2018-09-06T23:24:50.000Z,67.06
2018-09-06T23:27:18.727Z,67.45
2018-09-06T23:29:48.060Z,67.33
2018-09-06T23:32:17.123Z,67.25
2018-09-06T23:34:45.991Z,66.99
2018-09-06T23:37:15.305Z,66.90
2018-09-06T23:39:44.065Z,66.94
2018-09-06T23:42:13.076Z,66.56
2018-09-06T23:44:42.261Z,67.37
2018-09-06T23:47:11.371Z,67.30
2018-09-06T23:49:40.459Z,67.62
2018-09-06T23:52:09.606Z,67.72
2018-09-06T23:54:38.374Z,68.38
2018-09-06T23:57:07.134Z,67.91
2018-09-06T23:59:35.867Z,68.22
